Terminal Aerodrome Forecast
Issued by NWS Portland, OR

Current Version | Previous Version | Text Only | Print | Product List | Glossary On
Versions: 1 2 3 4 5 6 7 8 9 10 11 12 13 14 15 16 17 18 19 20 21 22 23 24 25 26 27
000
FTUS46 KPQR 191137
TAFSLE
TAF
KSLE 191137Z 1912/2012 VRB02KT P6SM SKC
     FM191800 36007KT P6SM SKC
     FM192100 01010G18KT P6SM SKC
     FM200400 36006KT P6SM SKC=

USA.gov is the U.S. government's official web portal to all federal, state and local government web resources and services.